Time;durP1;ratioP1;P1;durP2;ratioP2;P2;SDS_P1;SDS_P2;PMS_P1;PMS_P2;Temp;Humidity;BMP_temperature;BMP_pressure;BME280_temperature;BME280_humidity;BME280_pressure;Samples;Min_cycle;Max_cycle;Signal;HPM_P1;HPM_P2
2023/07/19 00:01:53;;;;;;;2.03;0.95;;;;;;;14.97;100.00;100742.50;5019897;28;20056;-63
2023/07/19 00:04:20;;;;;;;2.92;1.20;;;;;;;15.07;100.00;100749.88;5030732;28;20490;-64
2023/07/19 00:06:47;;;;;;;4.88;1.30;;;;;;;15.11;100.00;100748.78;5033049;28;20057;-64
2023/07/19 00:09:14;;;;;;;3.92;1.20;;;;;;;15.15;100.00;100753.78;5032662;28;20128;-64
2023/07/19 00:11:40;;;;;;;6.20;1.30;;;;;;;15.07;100.00;100749.88;5031887;28;20050;-64
2023/07/19 00:14:07;;;;;;;1.80;0.80;;;;;;;15.11;100.00;100746.16;5031522;28;20057;-63
2023/07/19 00:16:34;;;;;;;1.55;0.85;;;;;;;15.18;100.00;100756.25;5032312;28;20045;-64
2023/07/19 00:19:01;;;;;;;2.78;0.93;;;;;;;15.13;100.00;100750.41;5032610;28;20095;-64
2023/07/19 00:21:31;;;;;;;1.95;1.10;;;;;;;15.35;100.00;100749.16;5018679;28;20084;-64
2023/07/19 00:23:58;;;;;;;0.73;0.70;;;;;;;15.28;100.00;100755.72;5032404;28;20065;-64
2023/07/19 00:26:24;;;;;;;2.47;1.10;;;;;;;15.07;100.00;100749.88;5030825;28;20053;-64
2023/07/19 00:28:51;;;;;;;1.70;0.90;;;;;;;15.07;100.00;100758.66;5032164;28;20069;-64
2023/07/19 00:31:21;;;;;;;3.95;1.10;;;;;;;14.87;100.00;100758.91;5027688;28;20099;-63
2023/07/19 00:33:48;;;;;;;2.25;1.00;;;;;;;14.93;100.00;100758.59;5031897;28;20049;-64
2023/07/19 00:36:14;;;;;;;2.03;0.85;;;;;;;14.81;100.00;100755.69;5030887;28;20061;-64
2023/07/19 00:38:41;;;;;;;1.85;0.98;;;;;;;14.68;100.00;100757.28;5031664;28;20045;-64
2023/07/19 00:41:08;;;;;;;3.03;1.08;;;;;;;14.48;100.00;100753.06;5025828;28;20057;-64
2023/07/19 00:43:36;;;;;;;1.45;0.93;;;;;;;14.46;100.00;100743.53;5030775;28;20595;-64
2023/07/19 00:46:03;;;;;;;1.52;0.93;;;;;;;14.41;100.00;100749.91;5020109;28;20384;-64
2023/07/19 00:48:30;;;;;;;2.83;1.00;;;;;;;14.44;100.00;100749.72;5031740;28;20064;-64
2023/07/19 00:50:57;;;;;;;2.20;1.00;;;;;;;14.59;100.00;100752.53;5024068;28;20483;-64
2023/07/19 00:53:25;;;;;;;2.63;1.00;;;;;;;14.56;100.00;100757.94;5031928;28;20056;-65
2023/07/19 00:55:53;;;;;;;3.20;1.13;;;;;;;14.63;100.00;100755.84;5031747;28;20053;-64
2023/07/19 00:58:23;;;;;;;2.05;1.00;;;;;;;14.69;100.00;100752.88;5014488;28;20046;-64
2023/07/19 01:00:52;;;;;;;2.83;1.00;;;;;;;14.67;100.00;100758.22;5020153;28;20053;-64
2023/07/19 01:03:21;;;;;;;1.38;0.90;;;;;;;14.63;100.00;100766.38;5031155;28;20057;-64
2023/07/19 01:05:48;;;;;;;2.08;1.08;;;;;;;14.44;100.00;100767.31;5029639;28;20056;-64
2023/07/19 01:08:17;;;;;;;2.25;1.10;;;;;;;14.35;100.00;100763.41;5013651;28;20049;-64
2023/07/19 01:10:44;;;;;;;2.22;1.00;;;;;;;14.34;100.00;100755.56;5019692;28;20054;-64
2023/07/19 01:13:11;;;;;;;1.90;1.10;;;;;;;14.35;100.00;100750.22;5031342;28;20471;-64
2023/07/19 01:15:40;;;;;;;2.97;1.17;;;;;;;14.35;100.00;100754.66;5030212;28;20042;-64
2023/07/19 01:18:07;;;;;;;2.58;1.10;;;;;;;14.31;100.00;100751.34;5024717;28;20049;-64
2023/07/19 01:20:34;;;;;;;4.13;1.30;;;;;;;14.28;100.00;100742.75;5012614;28;20483;-64
2023/07/19 01:23:01;;;;;;;3.28;1.23;;;;;;;14.21;100.00;100750.94;5030101;28;20042;-64
2023/07/19 01:25:28;;;;;;;3.22;1.20;;;;;;;14.13;100.00;100745.25;5030639;28;20095;-64
2023/07/19 01:27:55;;;;;;;1.77;1.00;;;;;;;14.15;100.00;100738.13;5013568;28;20046;-64
2023/07/19 01:30:21;;;;;;;3.13;1.05;;;;;;;14.12;100.00;100745.34;5025920;28;20069;-64
2023/07/19 01:32:48;;;;;;;4.40;1.20;;;;;;;14.17;100.00;100746.78;5030183;28;20053;-64
2023/07/19 01:35:16;;;;;;;5.72;1.33;;;;;;;14.04;100.00;100743.94;5030750;28;20125;-64
2023/07/19 01:37:42;;;;;;;3.38;1.30;;;;;;;14.12;100.00;100740.91;5031049;28;20431;-64
2023/07/19 01:40:11;;;;;;;3.05;1.10;;;;;;;14.04;100.00;100729.91;5024713;28;20054;-64
2023/07/19 01:42:39;;;;;;;3.17;1.10;;;;;;;14.21;100.00;100731.69;5031099;28;20075;-64
2023/07/19 01:45:07;;;;;;;2.72;1.00;;;;;;;14.13;100.00;100734.72;5030740;28;20041;-64
2023/07/19 01:47:34;;;;;;;2.55;1.00;;;;;;;14.14;100.00;100736.41;5018015;28;20160;-64
2023/07/19 01:50:01;;;;;;;3.20;1.10;;;;;;;14.12;100.00;100737.44;5023938;28;20046;-64
2023/07/19 01:52:27;;;;;;;3.85;1.20;;;;;;;14.13;100.00;100732.09;5029698;28;20487;-64
2023/07/19 01:54:54;;;;;;;2.90;1.25;;;;;;;14.06;100.00;100728.09;5029857;28;20502;-64
2023/07/19 01:57:21;;;;;;;1.98;1.05;;;;;;;14.09;100.00;100722.63;5031009;28;20107;-64
2023/07/19 01:59:48;;;;;;;1.90;1.00;;;;;;;14.23;100.00;100735.91;5029571;28;20045;-64
2023/07/19 02:02:15;;;;;;;3.47;1.20;;;;;;;14.15;100.00;100740.75;5030515;28;20153;-64
2023/07/19 02:04:42;;;;;;;5.25;1.17;;;;;;;14.10;100.00;100729.63;5030049;28;20076;-64
2023/07/19 02:07:09;;;;;;;2.55;1.20;;;;;;;14.01;100.00;100730.94;5029504;28;20107;-64
2023/07/19 02:09:35;;;;;;;1.35;0.93;;;;;;;13.96;100.00;100726.84;5013099;28;20419;-64
2023/07/19 02:12:02;;;;;;;2.78;1.08;;;;;;;14.01;100.00;100725.69;5022982;28;20046;-64
2023/07/19 02:14:29;;;;;;;3.70;1.08;;;;;;;14.09;100.00;100732.31;5030447;28;20072;-64
2023/07/19 02:16:55;;;;;;;2.30;1.10;;;;;;;13.98;100.00;100732.88;5029800;28;20060;-64
2023/07/19 02:19:22;;;;;;;2.22;1.13;;;;;;;14.05;100.00;100734.25;5018372;28;20061;-64
2023/07/19 02:21:49;;;;;;;2.63;1.00;;;;;;;14.07;100.00;100724.50;5021102;28;20058;-64
2023/07/19 02:24:16;;;;;;;2.90;1.38;;;;;;;14.01;100.00;100709.03;5023092;28;20053;-64
2023/07/19 02:26:43;;;;;;;4.75;1.33;;;;;;;14.14;100.00;100728.50;5029543;28;20038;-64
2023/07/19 02:29:10;;;;;;;3.28;1.10;;;;;;;14.07;100.00;100729.75;5030509;28;20049;-64
2023/07/19 02:31:37;;;;;;;3.85;1.25;;;;;;;14.07;100.00;100713.13;5026426;28;20049;-64
2023/07/19 02:34:09;;;;;;;2.25;1.20;;;;;;;14.13;100.00;100734.72;5030470;28;20534;-64
2023/07/19 02:36:37;;;;;;;2.92;1.45;;;;;;;14.09;100.00;100719.16;5016147;28;20056;-64
2023/07/19 02:39:04;;;;;;;3.05;1.17;;;;;;;14.11;100.00;100719.94;5029812;28;20061;-64
2023/07/19 02:41:31;;;;;;;2.75;1.00;;;;;;;14.21;100.00;100724.63;5011588;28;20053;-64
2023/07/19 02:43:59;;;;;;;2.42;1.10;;;;;;;14.16;100.00;100720.53;5029334;28;20060;-64
2023/07/19 02:46:26;;;;;;;2.15;1.13;;;;;;;14.13;100.00;100731.22;5030002;28;20045;-64
2023/07/19 02:48:52;;;;;;;2.80;1.00;;;;;;;14.08;100.00;100720.94;5024564;28;20049;-64
2023/07/19 02:51:19;;;;;;;3.42;1.17;;;;;;;14.11;100.00;100726.06;5010968;28;20060;-64
2023/07/19 02:53:47;;;;;;;1.23;0.85;;;;;;;14.09;100.00;100732.31;5029128;28;20050;-64
2023/07/19 02:56:14;;;;;;;1.80;1.00;;;;;;;13.91;100.00;100716.56;5030111;28;20057;-64
2023/07/19 02:58:42;;;;;;;2.92;1.20;;;;;;;13.97;100.00;100732.03;5030289;28;20598;-64
2023/07/19 03:01:08;;;;;;;2.17;1.13;;;;;;;13.89;100.00;100723.69;5023637;28;20049;-64
2023/07/19 03:03:35;;;;;;;3.17;1.20;;;;;;;13.89;100.00;100734.22;5029895;28;20095;-64
2023/07/19 03:06:02;;;;;;;3.10;1.13;;;;;;;13.74;100.00;100732.34;5028650;28;20100;-64
2023/07/19 03:08:29;;;;;;;6.22;1.00;;;;;;;13.62;100.00;100708.38;5029401;28;20511;-64
2023/07/19 03:10:55;;;;;;;2.47;0.90;;;;;;;13.72;100.00;100729.78;5019161;28;20140;-64
2023/07/19 03:13:22;;;;;;;1.58;0.90;;;;;;;13.60;100.00;100712.03;5030617;28;20049;-64
2023/07/19 03:15:50;;;;;;;3.80;1.20;;;;;;;13.56;100.00;100713.94;5029199;28;20041;-64
2023/07/19 03:18:16;;;;;;;2.85;1.00;;;;;;;13.68;100.00;100736.16;5030203;28;20081;-64
2023/07/19 03:20:43;;;;;;;4.00;1.00;;;;;;;13.60;100.00;100735.69;5016093;28;20046;-64
2023/07/19 03:23:10;;;;;;;1.63;0.90;;;;;;;13.63;100.00;100739.03;5028840;28;20099;-64
2023/07/19 03:25:37;;;;;;;2.08;0.90;;;;;;;13.64;100.00;100738.09;5026377;28;20095;-64
2023/07/19 03:28:04;;;;;;;2.83;1.13;;;;;;;13.57;100.00;100736.69;5029276;28;20056;-64
2023/07/19 03:30:30;;;;;;;1.92;0.93;;;;;;;13.52;100.00;100737.84;5010993;28;20102;-64
2023/07/19 03:32:57;;;;;;;1.45;0.93;;;;;;;13.57;100.00;100738.47;5028849;28;20108;-64
2023/07/19 03:35:24;;;;;;;3.75;1.65;;;;;;;13.45;100.00;100732.03;5032046;28;20047;-64
2023/07/19 03:37:51;;;;;;;3.60;1.02;;;;;;;13.36;100.00;100711.47;5025534;28;20057;-64
2023/07/19 03:40:17;;;;;;;2.55;1.00;;;;;;;13.52;100.00;100728.19;5014977;28;20057;-64
2023/07/19 03:42:44;;;;;;;2.40;1.35;;;;;;;13.53;100.00;100732.53;5031988;28;20049;-64
2023/07/19 03:45:11;;;;;;;2.47;1.13;;;;;;;13.54;100.00;100736.84;5030452;28;20041;-64
2023/07/19 03:47:39;;;;;;;3.75;1.00;;;;;;;13.47;100.00;100738.94;5024653;28;20046;-64
2023/07/19 03:50:07;;;;;;;2.35;0.98;;;;;;;13.34;100.00;100735.19;5031836;28;20048;-64
2023/07/19 03:52:33;;;;;;;2.63;1.00;;;;;;;13.32;100.00;100729.16;5030721;28;20049;-64
2023/07/19 03:55:00;;;;;;;4.90;1.10;;;;;;;13.32;100.00;100738.84;5021867;28;20045;-64
2023/07/19 03:57:27;;;;;;;1.80;0.90;;;;;;;13.30;100.00;100734.47;5033236;28;20140;-64
2023/07/19 03:59:54;;;;;;;4.03;1.17;;;;;;;13.24;100.00;100732.16;5026814;28;20049;-64
2023/07/19 04:02:22;;;;;;;2.80;1.00;;;;;;;13.25;100.00;100739.09;5031647;28;20074;-64
2023/07/19 04:04:49;;;;;;;1.95;1.05;;;;;;;13.23;100.00;100738.31;5015070;28;20045;-65
2023/07/19 04:07:16;;;;;;;2.25;1.00;;;;;;;13.27;100.00;100741.66;5044876;28;20047;-65
2023/07/19 04:09:44;;;;;;;2.10;1.05;;;;;;;13.26;100.00;100743.44;5032985;28;20479;-64
2023/07/19 04:12:11;;;;;;;2.08;1.00;;;;;;;13.27;100.00;100739.03;5032500;28;20103;-65
2023/07/19 04:14:38;;;;;;;1.83;0.93;;;;;;;13.38;100.00;100736.75;5032311;28;20057;-65
2023/07/19 04:17:05;;;;;;;2.60;1.00;;;;;;;13.34;100.00;100739.63;5031596;28;20041;-65
2023/07/19 04:19:31;;;;;;;2.95;1.13;;;;;;;13.35;100.00;100736.03;5017736;28;20077;-65
2023/07/19 04:21:58;;;;;;;2.70;1.05;;;;;;;13.41;100.00;100735.75;5031923;28;20045;-65
2023/07/19 04:24:25;;;;;;;2.75;1.20;;;;;;;13.59;100.00;100753.25;5031548;28;20046;-65
2023/07/19 04:26:51;;;;;;;1.95;0.90;;;;;;;13.62;100.00;100747.00;5031563;28;20044;-65
2023/07/19 04:29:19;;;;;;;2.20;1.10;;;;;;;13.77;100.00;100743.56;5031339;28;20103;-65
2023/07/19 04:31:46;;;;;;;2.35;1.10;;;;;;;13.98;100.00;100744.25;5032053;28;20047;-64
2023/07/19 04:34:13;;;;;;;2.60;1.05;;;;;;;14.46;100.00;100735.63;5032172;28;20053;-64
2023/07/19 04:36:40;;;;;;;3.45;1.10;;;;;;;15.00;100.00;100736.22;5032440;28;20076;-64
2023/07/19 04:39:06;;;;;;;2.00;1.13;;;;;;;15.56;100.00;100745.31;5032231;28;20056;-64
2023/07/19 04:41:33;;;;;;;3.42;1.00;;;;;;;15.91;100.00;100749.47;5028860;28;20057;-64
2023/07/19 04:44:00;;;;;;;1.75;0.75;;;;;;;16.14;100.00;100754.22;5014351;28;20091;-64
2023/07/19 04:46:26;;;;;;;1.77;0.90;;;;;;;16.13;100.00;100754.31;5031075;28;20056;-64
2023/07/19 04:48:53;;;;;;;2.15;0.90;;;;;;;16.14;100.00;100750.72;5031825;28;20053;-64
2023/07/19 04:51:20;;;;;;;1.52;0.90;;;;;;;16.56;100.00;100750.84;5023915;28;20054;-64
2023/07/19 04:53:47;;;;;;;2.92;1.00;;;;;;;16.89;100.00;100745.22;5010811;28;20049;-64
2023/07/19 04:56:14;;;;;;;5.63;1.05;;;;;;;16.67;100.00;100751.00;5031199;28;20053;-64
2023/07/19 04:58:40;;;;;;;2.90;1.00;;;;;;;16.05;100.00;100751.28;5031502;28;20400;-64
2023/07/19 05:01:08;;;;;;;4.40;1.50;;;;;;;15.63;100.00;100747.59;5020797;28;20075;-64
2023/07/19 05:03:36;;;;;;;3.05;1.20;;;;;;;15.39;100.00;100750.72;5031449;28;20406;-65
2023/07/19 05:06:03;;;;;;;2.42;1.00;;;;;;;15.11;100.00;100741.72;5032179;28;20045;-64
2023/07/19 05:08:30;;;;;;;5.40;1.00;;;;;;;14.94;100.00;100750.59;5031308;28;20484;-65
2023/07/19 05:10:57;;;;;;;2.17;1.05;;;;;;;14.89;100.00;100754.41;5019372;28;21267;-65
2023/07/19 05:13:23;;;;;;;4.50;1.00;;;;;;;14.68;100.00;100752.03;5031300;28;20072;-65
2023/07/19 05:15:50;;;;;;;3.83;1.20;;;;;;;14.79;100.00;100748.81;5030962;28;20041;-65
2023/07/19 05:18:17;;;;;;;3.60;1.00;;;;;;;14.69;100.00;100756.34;5031343;28;20064;-65
2023/07/19 05:20:43;;;;;;;3.47;1.25;;;;;;;14.69;100.00;100763.41;5029805;28;20085;-65
2023/07/19 05:23:11;;;;;;;3.58;1.13;;;;;;;14.66;100.00;100755.66;5025493;28;20049;-65
2023/07/19 05:25:38;;;;;;;3.28;1.20;;;;;;;14.53;100.00;100752.81;5030794;28;20057;-65
2023/07/19 05:28:06;;;;;;;3.20;1.30;;;;;;;14.44;100.00;100749.72;5031287;28;20067;-65
2023/07/19 05:30:33;;;;;;;3.17;1.30;;;;;;;14.40;100.00;100750.00;5029611;28;20052;-64
2023/07/19 05:32:59;;;;;;;3.45;1.17;;;;;;;14.50;100.00;100745.06;5032526;28;20133;-65
2023/07/19 05:35:26;;;;;;;2.28;1.10;;;;;;;14.56;100.00;100747.38;5031461;28;20054;-65
2023/07/19 05:37:52;;;;;;;4.20;1.30;;;;;;;14.46;100.00;100759.34;5031004;28;20049;-65
2023/07/19 05:40:19;;;;;;;4.85;1.52;;;;;;;14.51;100.00;100745.00;5030395;28;20057;-64
2023/07/19 05:42:46;;;;;;;2.85;1.20;;;;;;;14.52;100.00;100751.09;5030621;28;20053;-64
2023/07/19 05:45:13;;;;;;;4.55;1.40;;;;;;;14.48;100.00;100750.41;5029911;28;20415;-64
2023/07/19 05:47:40;;;;;;;4.15;1.30;;;;;;;14.53;100.00;100753.66;5030807;28;20476;-65
2023/07/19 05:50:07;;;;;;;3.80;1.13;;;;;;;14.42;100.00;100754.22;5026747;28;20124;-65
2023/07/19 05:52:34;;;;;;;4.25;1.35;;;;;;;14.43;100.00;100758.59;5035309;28;20060;-65
2023/07/19 05:55:00;;;;;;;1.58;1.02;;;;;;;14.48;100.00;100763.59;5029701;28;20057;-64
2023/07/19 05:57:31;;;;;;;3.22;1.20;;;;;;;14.54;100.00;100757.16;5030519;28;20045;-65
2023/07/19 06:00:13;;;;;;;3.28;1.00;;;;;;;14.92;100.00;100760.34;5023538;28;20050;-65
2023/07/19 06:02:45;;;;;;;3.40;1.30;;;;;;;15.80;100.00;100767.75;5028059;28;20095;-66
2023/07/19 06:05:23;;;;;;;3.40;1.30;;;;;;;16.87;100.00;100770.91;5030345;28;20057;-65
2023/07/19 06:07:50;;;;;;;2.10;1.00;;;;;;;17.54;100.00;100760.38;5030415;28;20053;-66
2023/07/19 06:10:16;;;;;;;3.53;1.00;;;;;;;17.81;100.00;100763.00;5024169;28;20086;-66
2023/07/19 06:12:44;;;;;;;1.52;0.80;;;;;;;18.25;100.00;100768.03;5027945;28;20546;-66
2023/07/19 06:15:11;;;;;;;2.33;0.80;;;;;;;18.49;100.00;100773.44;5029472;28;20054;-66
2023/07/19 06:17:41;;;;;;;3.58;1.10;;;;;;;18.95;100.00;100775.50;5029071;28;20049;-66
2023/07/19 06:20:11;;;;;;;2.38;0.85;;;;;;;19.05;100.00;100773.00;5021704;28;20072;-66
2023/07/19 06:22:38;;;;;;;3.83;0.90;;;;;;;19.42;100.00;100770.31;5024391;28;20701;-65
2023/07/19 06:25:06;;;;;;;2.97;1.00;;;;;;;19.48;100.00;100777.84;5030326;28;20045;-65
2023/07/19 06:27:32;;;;;;;2.70;0.90;;;;;;;19.49;100.00;100776.84;5011900;28;20045;-65
2023/07/19 06:29:59;;;;;;;2.40;0.88;;;;;;;19.06;100.00;100777.38;5023292;28;20050;-66
2023/07/19 06:32:26;;;;;;;2.05;0.90;;;;;;;19.44;100.00;100776.34;5022042;28;20164;-66
2023/07/19 06:34:53;;;;;;;4.22;0.80;;;;;;;20.02;100.00;100779.09;5042431;28;20467;-66
2023/07/19 06:37:20;;;;;;;2.15;0.70;;;;;;;20.01;100.00;100780.06;5030436;28;20057;-66
2023/07/19 06:39:48;;;;;;;5.45;0.90;;;;;;;19.94;100.00;100782.34;5026727;28;20046;-66
2023/07/19 06:42:14;;;;;;;2.05;0.90;;;;;;;19.87;100.00;100771.34;5029764;28;20106;-66
2023/07/19 06:44:41;;;;;;;1.63;0.77;;;;;;;19.97;100.00;100784.75;5030178;28;20056;-66
2023/07/19 06:47:08;;;;;;;2.38;0.80;;;;;;;19.91;100.00;100786.09;5022900;28;20077;-65
2023/07/19 06:49:35;;;;;;;1.42;0.70;;;;;;;19.97;100.00;100771.47;5027836;28;20511;-66
2023/07/19 06:52:01;;;;;;;2.35;0.88;;;;;;;20.73;100.00;100782.44;5028853;28;20056;-65
2023/07/19 06:54:28;;;;;;;1.40;0.80;;;;;;;20.94;100.00;100790.50;5027721;28;20549;-66
2023/07/19 06:56:55;;;;;;;3.22;0.77;;;;;;;20.89;100.00;100771.41;5003665;28;20458;-66
2023/07/19 06:59:21;;;;;;;2.67;1.00;;;;;;;20.92;100.00;100788.97;5028017;28;20056;-66
2023/07/19 07:01:48;;;;;;;1.80;0.77;;;;;;;20.65;100.00;100787.53;5030597;28;20057;-66
2023/07/19 07:04:15;;;;;;;1.70;0.70;;;;;;;20.18;100.00;100790.25;5029059;28;20570;-65
2023/07/19 07:06:41;;;;;;;2.75;0.90;;;;;;;20.26;100.00;100787.84;5020654;28;20403;-66
2023/07/19 07:09:08;;;;;;;3.20;0.88;;;;;;;20.53;100.00;100796.44;5026296;28;20278;-66
2023/07/19 07:11:35;;;;;;;4.53;0.80;;;;;;;20.80;100.00;100793.44;5031186;28;20068;-66
2023/07/19 07:14:01;;;;;;;1.67;0.70;;;;;;;20.67;100.00;100788.25;5024332;28;20060;-66
2023/07/19 07:16:28;;;;;;;5.88;1.00;;;;;;;20.55;100.00;100791.84;5033973;28;20050;-67
2023/07/19 07:18:55;;;;;;;1.73;0.80;;;;;;;21.37;100.00;100787.03;5016644;28;20415;-66
2023/07/19 07:21:22;;;;;;;3.70;0.90;;;;;;;21.41;100.00;100784.97;5017397;28;20056;-66
2023/07/19 07:23:49;;;;;;;2.80;0.85;;;;;;;20.63;100.00;100803.63;5032539;28;20488;-66
2023/07/19 07:26:16;;;;;;;2.40;0.80;;;;;;;20.29;100.00;100797.38;5034216;28;20049;-66
2023/07/19 07:28:43;;;;;;;2.78;0.73;;;;;;;20.46;100.00;100786.28;5042162;28;20071;-66
2023/07/19 07:31:11;;;;;;;2.92;1.00;;;;;;;20.87;100.00;100794.63;5026884;28;20092;-67
2023/07/19 07:33:39;;;;;;;3.65;0.95;;;;;;;20.74;100.00;100797.44;5033329;28;20199;-66
2023/07/19 07:36:06;;;;;;;2.60;0.85;;;;;;;21.07;100.00;100787.72;5033666;28;20045;-66
2023/07/19 07:38:34;;;;;;;3.42;0.90;;;;;;;21.00;100.00;100798.03;5032937;28;20041;-67
2023/07/19 07:41:01;;;;;;;2.78;0.80;;;;;;;20.97;100.00;100795.59;5031035;28;20507;-66
2023/07/19 07:43:29;;;;;;;3.20;0.80;;;;;;;20.97;100.00;100800.91;5032523;28;20045;-66
2023/07/19 07:45:56;;;;;;;2.85;0.90;;;;;;;20.64;100.00;100802.63;5033417;28;20046;-66
2023/07/19 07:48:23;;;;;;;2.45;0.93;;;;;;;20.46;100.00;100778.31;5033527;28;20057;-67
2023/07/19 07:50:51;;;;;;;4.80;1.17;;;;;;;20.95;100.00;100791.38;5031723;28;20042;-65
2023/07/19 07:53:18;;;;;;;2.00;0.80;;;;;;;20.92;100.00;100795.13;5032209;28;20056;-67
2023/07/19 07:55:45;;;;;;;3.65;0.90;;;;;;;21.49;100.00;100795.00;5030774;28;20048;-66
2023/07/19 07:58:13;;;;;;;2.58;0.90;;;;;;;21.98;100.00;100794.41;5023135;28;20056;-67
2023/07/19 08:00:40;;;;;;;3.58;0.90;;;;;;;21.85;100.00;100803.56;5027798;28;20057;-67
2023/07/19 08:03:09;;;;;;;4.50;1.02;;;;;;;21.30;100.00;100808.94;5027549;28;20061;-67
2023/07/19 08:05:37;;;;;;;5.55;1.20;;;;;;;21.09;100.00;100798.22;5025187;28;20147;-67
2023/07/19 08:08:06;;;;;;;3.67;1.27;;;;;;;21.28;100.00;100800.25;5004923;28;20155;-66
2023/07/19 08:14:21;;;;;;;7.20;1.15;;;;;;;22.04;100.00;100793.03;5021360;28;20529;-65
2023/07/19 08:16:50;;;;;;;3.00;1.17;;;;;;;21.45;100.00;100806.84;5033799;28;20053;-66
2023/07/19 08:19:17;;;;;;;5.25;1.27;;;;;;;21.14;100.00;100799.56;5042077;28;20406;-66
2023/07/19 08:21:43;;;;;;;4.63;1.30;;;;;;;21.31;100.00;100795.50;5039815;28;20049;-66
2023/07/19 08:24:11;;;;;;;5.65;1.20;;;;;;;21.26;100.00;100797.69;5040468;28;20359;-66
2023/07/19 08:26:38;;;;;;;3.45;1.30;;;;;;;21.39;100.00;100798.41;5039716;28;20088;-66
2023/07/19 08:29:04;;;;;;;6.38;1.17;;;;;;;21.89;100.00;100791.69;5039769;28;20049;-66
2023/07/19 08:31:31;;;;;;;3.95;1.15;;;;;;;22.00;100.00;100792.44;5020146;28;20057;-66
2023/07/19 08:33:58;;;;;;;3.80;1.00;;;;;;;22.31;100.00;100797.00;5030803;28;20049;-66
2023/07/19 08:36:25;;;;;;;3.65;1.02;;;;;;;22.02;100.00;100800.31;5040840;28;20049;-66
2023/07/19 08:38:51;;;;;;;3.03;0.95;;;;;;;21.57;100.00;100796.06;5031686;28;20045;-66
2023/07/19 08:41:21;;;;;;;2.45;0.88;;;;;;;21.64;100.00;100790.22;5012091;28;20053;-66
2023/07/19 08:43:51;;;;;;;2.72;0.90;;;;;;;22.10;100.00;100805.00;5030453;28;20060;-67
2023/07/19 08:46:18;;;;;;;4.35;1.13;;;;;;;21.08;100.00;100813.34;5026280;28;20045;-66
2023/07/19 08:48:47;;;;;;;3.65;1.23;;;;;;;20.60;100.00;100808.31;5043728;28;20462;-66
2023/07/19 08:51:18;;;;;;;5.53;1.40;;;;;;;20.94;100.00;100800.31;5042103;28;20103;-66
2023/07/19 08:53:45;;;;;;;3.85;1.50;;;;;;;21.77;100.00;100786.38;5042605;28;20082;-66
2023/07/19 08:56:13;;;;;;;4.47;1.65;;;;;;;21.39;100.00;100792.25;5031488;28;20053;-65
2023/07/19 08:58:40;;;;;;;5.80;1.88;;;;;;;22.22;100.00;100792.44;5031012;28;20049;-65
2023/07/19 09:01:07;;;;;;;7.72;1.70;;;;;;;21.29;100.00;100800.13;5031618;28;20053;-66
2023/07/19 09:03:34;;;;;;;4.40;1.50;;;;;;;20.27;100.00;100799.31;5031560;28;20435;-66
2023/07/19 09:06:01;;;;;;;5.90;1.75;;;;;;;20.09;100.00;100804.25;5032152;28;20045;-66
2023/07/19 09:08:38;;;;;;;5.85;2.00;;;;;;;19.72;100.00;100793.72;5032079;28;20449;-65
2023/07/19 09:11:06;;;;;;;7.28;2.15;;;;;;;19.44;100.00;100800.25;5031642;28;20057;-65
2023/07/19 09:13:37;;;;;;;5.68;2.00;;;;;;;19.73;100.00;100804.25;5030686;28;20046;-65
2023/07/19 09:16:06;;;;;;;5.63;1.88;;;;;;;19.69;100.00;100786.00;5030921;28;20045;-66
2023/07/19 09:18:37;;;;;;;4.43;1.60;;;;;;;19.18;100.00;100810.97;5031096;28;20610;-66
2023/07/19 09:21:05;;;;;;;6.72;2.38;;;;;;;18.52;100.00;100810.31;5020056;28;20049;-66
2023/07/19 09:23:34;;;;;;;6.63;2.33;;;;;;;17.98;100.00;100821.97;5038581;28;20049;-66
2023/07/19 09:26:03;;;;;;;7.22;2.17;;;;;;;17.98;100.00;100808.72;5039306;28;20061;-66
2023/07/19 09:28:34;;;;;;;7.85;2.90;;;;;;;17.97;100.00;100814.97;5030401;28;20092;-66
2023/07/19 09:31:04;;;;;;;8.27;2.88;;;;;;;17.64;100.00;100825.03;5028053;28;20049;-65
2023/07/19 09:33:34;;;;;;;8.48;2.90;;;;;;;17.78;100.00;100807.38;5030434;28;20057;-66
2023/07/19 09:36:01;;;;;;;8.52;3.30;;;;;;;18.05;100.00;100825.06;5030867;28;20085;-65
2023/07/19 09:38:27;;;;;;;8.57;3.45;;;;;;;17.98;100.00;100816.66;5031303;28;20478;-65
2023/07/19 09:40:55;;;;;;;8.70;3.38;;;;;;;17.93;100.00;100816.97;5022018;28;20057;-65
2023/07/19 09:43:22;;;;;;;7.72;3.20;;;;;;;17.92;100.00;100811.75;5030779;28;20141;-65
2023/07/19 09:45:50;;;;;;;8.45;3.35;;;;;;;17.99;100.00;100805.13;5008505;28;20053;-66
2023/07/19 09:48:18;;;;;;;8.93;3.53;;;;;;;19.25;100.00;100816.69;5012604;28;20132;-65
2023/07/19 09:50:51;;;;;;;8.38;3.30;;;;;;;19.69;100.00;100801.94;5028122;28;20554;-66
2023/07/19 09:53:23;;;;;;;9.55;3.58;;;;;;;18.87;100.00;100807.03;5030050;28;20403;-66
2023/07/19 09:55:52;;;;;;;8.77;3.33;;;;;;;19.28;100.00;100805.81;5030261;28;20057;-66
2023/07/19 09:58:21;;;;;;;8.77;3.65;;;;;;;19.37;100.00;100802.53;5027045;28;20054;-66
2023/07/19 10:00:48;;;;;;;11.68;3.63;;;;;;;19.86;100.00;100806.00;5030571;28;20136;-65
2023/07/19 10:03:19;;;;;;;8.55;3.38;;;;;;;20.05;100.00;100798.31;5026812;28;20048;-66
2023/07/19 10:05:58;;;;;;;8.25;2.97;;;;;;;20.41;100.00;100799.09;5025679;28;20085;-65
2023/07/19 10:08:25;;;;;;;11.57;3.40;;;;;;;20.65;100.00;100791.03;5029540;28;20088;-66
2023/07/19 10:10:58;;;;;;;7.68;3.15;;;;;;;20.98;100.00;100796.44;5023400;28;20045;-65
2023/07/19 10:13:49;;;;;;;9.25;2.90;;;;;;;20.37;100.00;100789.66;5021495;28;20457;-66
2023/07/19 10:16:36;;;;;;;9.27;3.30;;;;;;;20.07;100.00;100801.69;5024974;28;20072;-66
2023/07/19 10:19:14;;;;;;;8.73;3.08;;;;;;;19.94;100.00;100794.78;5030336;28;20144;-65
2023/07/19 10:22:02;;;;;;;8.73;3.50;;;;;;;19.51;100.00;100797.03;5038641;28;20414;-66
2023/07/19 10:24:36;;;;;;;8.23;3.50;;;;;;;19.79;100.00;100804.75;5029316;28;20490;-66
2023/07/19 10:27:07;;;;;;;8.15;3.22;;;;;;;19.78;100.00;100809.25;5030280;28;20045;-66
2023/07/19 10:29:38;;;;;;;7.50;2.67;;;;;;;19.79;100.00;100796.81;5022005;28;20191;-66
2023/07/19 10:32:07;;;;;;;10.38;3.47;;;;;;;19.37;100.00;100810.50;5029677;28;20045;-63
2023/07/19 10:34:34;;;;;;;8.90;3.35;;;;;;;19.65;100.00;100811.06;5028973;28;20049;-65
2023/07/19 10:37:11;;;;;;;9.57;3.33;;;;;;;19.79;100.00;100812.75;5029512;28;20052;-66
2023/07/19 10:39:37;;;;;;;8.32;3.28;;;;;;;19.37;100.00;100799.88;5038964;28;20056;-65
2023/07/19 10:42:04;;;;;;;9.13;3.45;;;;;;;19.27;100.00;100815.59;5013188;28;20613;-65
2023/07/19 10:44:31;;;;;;;11.35;3.83;;;;;;;18.42;100.00;100823.38;5029419;28;20092;-65
2023/07/19 10:46:58;;;;;;;9.57;3.88;;;;;;;17.76;100.00;100833.09;5030043;28;20050;-64
2023/07/19 10:49:27;;;;;;;8.55;3.33;;;;;;;17.67;100.00;100825.78;5010027;28;20495;-64
2023/07/19 10:51:55;;;;;;;11.15;3.63;;;;;;;17.49;100.00;100836.59;5020877;28;20407;-65
2023/07/19 10:54:22;;;;;;;9.85;3.92;;;;;;;17.50;100.00;100833.03;5012424;28;20502;-65
2023/07/19 10:56:50;;;;;;;11.80;4.45;;;;;;;17.75;100.00;100842.00;5030413;28;20053;-65
2023/07/19 10:59:17;;;;;;;9.18;3.42;;;;;;;17.58;100.00;100832.50;5012088;28;20519;-65
2023/07/19 11:01:46;;;;;;;9.73;4.03;;;;;;;17.51;100.00;100836.50;5028373;28;20045;-65
2023/07/19 11:04:13;;;;;;;10.45;3.83;;;;;;;17.72;100.00;100824.50;5029545;28;20495;-65
2023/07/19 11:06:54;;;;;;;8.73;3.10;;;;;;;18.12;100.00;100848.38;5030268;28;20136;-65
2023/07/19 11:09:22;;;;;;;10.00;3.95;;;;;;;17.69;100.00;100837.09;5028997;28;20104;-65
2023/07/19 11:11:53;;;;;;;11.95;4.10;;;;;;;17.93;100.00;100845.25;5027860;28;20063;-65
2023/07/19 11:15:00;;;;;;;8.25;2.90;;;;;;;17.79;100.00;100849.63;5029489;28;20140;-65
2023/07/19 11:17:30;;;;;;;7.65;2.80;;;;;;;17.63;100.00;100846.31;5018950;28;20049;-65
2023/07/19 11:19:58;;;;;;;6.45;2.13;;;;;;;17.52;100.00;100854.94;5025940;28;20052;-64
2023/07/19 11:22:27;;;;;;;8.57;2.55;;;;;;;17.41;100.00;100857.44;5025657;28;20049;-65
2023/07/19 11:24:55;;;;;;;7.18;2.15;;;;;;;17.40;100.00;100859.22;5029052;28;20096;-65